Currently 60°F in Lake Elsinore, California, USA
60°F
63°F / 60°F
calm
0.00"
Tuesday, May 18, 2021 1:20 AM PDT

Lake Elsinore, California Weather Summary
Last 36 Hours

Temperature Winds Hourly Humidity Dewpoint
Time Report Norm Report Norm Max Gusts Precip. Rpt. Norm Rpt. Norm Pressure
1,3Tue 01:20 AM  60.4°F  59°F  calm  1 mph  9 mph  0.00"  71%  81%  51°F  52°F  N/A
Tue 01:00 AM  60.9°F  59°F  3 mph S  1 mph  10 mph  0.00"  70%  80%  51°F  53°F  N/A
2Tue 12:00 AM  62.5°F  60°F  5 mph SW  1 mph  10 mph  0.00"  67%  79%  51°F  53°F  N/A
Mon 11:00 PM  62.5°F  61°F  2 mph S  1 mph  6 mph  0.00"  66%  77%  50°F  54°F  N/A
Mon 10:00 PM  62.9°F  63°F  1 mph W  2 mph  7 mph  0.00"  66%  74%  51°F  54°F  N/A
Mon 09:00 PM  62.4°F  65°F  3 mph W  3 mph  7 mph  0.00"  67%  69%  51°F  54°F  N/A
Mon 08:00 PM  63.2°F  68°F  4 mph SW  4 mph  10 mph  0.00"  65%  62%  51°F  54°F  N/A
Mon 07:00 PM  66.3°F  73°F  7 mph W  5 mph  11 mph  0.00"  57%  53%  50°F  54°F  N/A
Mon 06:00 PM  70.0°F  77°F  3 mph S  5 mph  14 mph  0.00"  51%  46%  51°F  54°F  N/A
Mon 05:00 PM  73.4°F  80°F  6 mph W  6 mph  13 mph  0.00"  45%  42%  50°F  54°F  N/A
Mon 04:00 PM  75.0°F  82°F  2 mph S  6 mph  8 mph  0.00"  42%  39%  50°F  54°F  N/A
Mon 03:00 PM  72.8°F  83°F  1 mph SE  5 mph  13 mph  0.00"  46%  39%  50°F  54°F  N/A
Mon 02:00 PM  69.4°F  82°F  2 mph SE  4 mph  6 mph  0.00"  50%  39%  49°F  54°F  N/A
Mon 01:00 PM  68.7°F  80°F  3 mph S  3 mph  10 mph  0.00"  50%  41%  49°F  53°F  N/A
Mon 12:00 PM  66.6°F  77°F  5 mph S  3 mph  12 mph  0.00"  55%  45%  49°F  54°F  N/A
Mon 11:00 AM  65.7°F  74°F  8 mph S  3 mph  9 mph  0.00"  56%  52%  49°F  54°F  N/A
Mon 10:00 AM  62.8°F  70°F  4 mph S  2 mph  6 mph  0.00"  61%  60%  49°F  55°F  N/A
Mon 09:00 AM  63.1°F  65°F  1 mph NE  2 mph  7 mph  0.00"  62%  70%  49°F  55°F  N/A
Mon 08:00 AM  59.6°F  61°F  1 mph SE  1 mph  4 mph  0.00"  68%  80%  49°F  54°F  N/A
Mon 07:00 AM  58.2°F  57°F  calm  1 mph  5 mph  0.00"  69%  86%  48°F  52°F  N/A
Mon 06:00 AM  57.8°F  55°F  calm  1 mph  none  0.00"  72%  86%  49°F  51°F  N/A
Mon 05:00 AM  57.6°F  56°F  calm  1 mph  none  0.00"  71%  85%  48°F  51°F  N/A
Mon 04:00 AM  57.6°F  56°F  calm  1 mph  none  0.00"  69%  84%  47°F  51°F  N/A
Mon 03:00 AM  58.1°F  57°F  calm  1 mph  6 mph  0.00"  69%  82%  47°F  52°F  N/A
Mon 02:00 AM  57.7°F  58°F  2 mph SW  1 mph  10 mph  0.00"  69%  81%  47°F  52°F  N/A
Mon 01:00 AM  57.5°F  59°F  calm  1 mph  none  0.00"  70%  80%  47°F  53°F  N/A
Mon 12:00 AM  58.0°F  60°F  calm  1 mph  7 mph  0.00"  70%  78%  48°F  53°F  N/A
Sun 11:00 PM  58.0°F  61°F  calm  1 mph  9 mph  0.00"  69%  76%  48°F  54°F  N/A
Sun 10:00 PM  58.3°F  63°F  2 mph SW  2 mph  10 mph  0.00"  69%  73%  48°F  54°F  N/A
Sun 09:00 PM  58.0°F  65°F  3 mph SW  3 mph  14 mph  0.00"  69%  68%  48°F  54°F  N/A
Sun 08:00 PM  58.8°F  68°F  7 mph SW  3 mph  12 mph  0.00"  68%  61%  48°F  54°F  N/A
Sun 07:00 PM  60.0°F  73°F  5 mph SW  5 mph  12 mph  0.00"  65%  52%  48°F  54°F  N/A
Sun 06:00 PM  61.1°F  78°F  5 mph SW  5 mph  15 mph  0.00"  62%  44%  47°F  54°F  N/A
Sun 05:00 PM  62.5°F  81°F  8 mph SW  6 mph  18 mph  0.00"  59%  40%  47°F  53°F  N/A
Sun 04:00 PM  64.7°F  83°F  11 mph SW  6 mph  17 mph  0.00"  53%  38%  47°F  53°F  N/A
Sun 03:00 PM  65.6°F  83°F  9 mph SW  5 mph  19 mph  0.00"  53%  37%  47°F  54°F  N/A
Sun 02:00 PM  64.3°F  82°F  10 mph SW  4 mph  18 mph  0.00"  54%  38%  47°F  53°F  N/A

  1. Current weather data. No green row appears if the current weather data is also the high or low for the current day.
  2. High temperature for the current day.
  3. Low temperature for the current day.

The Lake Elsinore, California weather pages are a service of WeatherCurrents. Lake Elsinore is located south of Corona and north of the Temecula Valley, in southwestern Riverside County, California.
Copyright ©2021  WeatherCurrents. All rights reserved. - Submit questions and comments - Privacy Policy

This page automatically refreshes every 10 minutes.